createdAt,value
2017-10-17T00:00:15.702Z,23.08
2017-10-17T00:00:49.597Z,21.62
2017-10-17T00:01:23.465Z,15.82
2017-10-17T00:01:57.340Z,19.27
2017-10-17T00:02:31.212Z,16.45
2017-10-17T00:03:05.078Z,20.12
2017-10-17T00:03:38.958Z,19.83
2017-10-17T00:04:13.006Z,18.20
2017-10-17T00:04:46.886Z,16.85
2017-10-17T00:05:20.783Z,21.08
2017-10-17T00:05:54.665Z,21.45
2017-10-17T00:06:28.547Z,20.62
2017-10-17T00:07:02.413Z,19.75
2017-10-17T00:07:36.281Z,20.05
2017-10-17T00:08:10.156Z,16.50
2017-10-17T00:08:44.032Z,18.75
2017-10-17T00:09:17.902Z,20.58
2017-10-17T00:09:51.779Z,18.87
2017-10-17T00:10:25.648Z,23.25
2017-10-17T00:10:59.551Z,23.00
2017-10-17T00:11:33.416Z,21.25
2017-10-17T00:12:07.283Z,21.85
2017-10-17T00:12:41.190Z,18.08
2017-10-17T00:13:15.054Z,19.75
2017-10-17T00:13:48.912Z,18.70
2017-10-17T00:14:22.777Z,22.20
2017-10-17T00:14:56.657Z,19.52
2017-10-17T00:15:30.537Z,18.73
2017-10-17T00:16:04.422Z,20.60
2017-10-17T00:16:38.302Z,20.27
2017-10-17T00:17:12.178Z,19.67
2017-10-17T00:17:46.048Z,16.15
2017-10-17T00:18:19.920Z,17.45
2017-10-17T00:18:53.802Z,18.12
2017-10-17T00:19:27.686Z,20.48
2017-10-17T00:20:01.561Z,20.52
2017-10-17T00:20:35.439Z,19.52
2017-10-17T00:21:09.323Z,21.37
2017-10-17T00:21:43.188Z,14.85
2017-10-17T00:22:17.059Z,16.95
2017-10-17T00:22:50.945Z,19.60
2017-10-17T00:23:24.819Z,20.88
2017-10-17T00:23:58.706Z,18.95
2017-10-17T00:24:32.565Z,18.00
2017-10-17T00:25:07.297Z,20.40
2017-10-17T00:25:41.191Z,20.50
2017-10-17T00:26:15.076Z,17.02
2017-10-17T00:26:48.939Z,20.42
2017-10-17T00:27:22.835Z,20.23
2017-10-17T00:27:56.712Z,24.83
2017-10-17T00:28:30.596Z,26.45
2017-10-17T00:29:04.761Z,17.75
2017-10-17T00:29:38.632Z,20.25
2017-10-17T00:30:12.513Z,16.77
2017-10-17T00:30:46.360Z,16.83
2017-10-17T00:31:20.235Z,19.42
2017-10-17T00:31:54.251Z,16.62
2017-10-17T00:32:35.723Z,21.77
2017-10-17T00:33:09.587Z,20.83
2017-10-17T00:33:43.430Z,19.05
2017-10-17T00:34:17.302Z,18.87
2017-10-17T00:34:51.187Z,23.98
2017-10-17T00:35:25.803Z,15.30
2017-10-17T00:36:01.376Z,19.90
2017-10-17T00:36:35.256Z,18.67
2017-10-17T00:37:09.127Z,18.30
2017-10-17T00:37:43.015Z,16.30
2017-10-17T00:38:18.528Z,17.48
2017-10-17T00:38:53.058Z,21.30
2017-10-17T00:39:27.915Z,17.80
2017-10-17T00:40:01.918Z,15.35
2017-10-17T00:40:39.418Z,24.30
2017-10-17T00:41:13.443Z,20.25
2017-10-17T00:41:47.431Z,16.85
2017-10-17T00:42:21.312Z,17.60
2017-10-17T00:42:55.192Z,15.68
2017-10-17T00:43:29.069Z,18.45
2017-10-17T00:44:03.081Z,19.75
2017-10-17T00:44:37.199Z,22.98
2017-10-17T00:45:11.102Z,20.25
2017-10-17T00:45:45.056Z,22.35
2017-10-17T00:46:20.134Z,16.77
2017-10-17T00:46:55.195Z,18.95
2017-10-17T00:47:29.208Z,21.12
2017-10-17T00:48:03.489Z,23.35
2017-10-17T00:48:38.052Z,22.00
2017-10-17T00:49:15.294Z,19.92
2017-10-17T00:49:49.536Z,16.17
2017-10-17T00:50:26.416Z,19.87
2017-10-17T00:51:06.160Z,19.70
2017-10-17T00:51:40.693Z,19.50
2017-10-17T00:52:15.219Z,18.08
2017-10-17T00:52:51.462Z,20.15
2017-10-17T00:53:25.704Z,18.75
2017-10-17T00:54:03.035Z,21.23
2017-10-17T00:54:37.776Z,22.10
2017-10-17T00:55:13.075Z,18.90
2017-10-17T00:55:49.575Z,19.73
2017-10-17T00:56:23.473Z,18.95
2017-10-17T00:56:57.343Z,16.65
2017-10-17T00:57:31.223Z,19.48
2017-10-17T00:58:05.096Z,23.75
2017-10-17T00:58:38.990Z,18.08
2017-10-17T00:59:12.872Z,21.85
2017-10-17T00:59:46.775Z,21.62
2017-10-17T01:00:20.649Z,24.73
2017-10-17T01:00:54.512Z,18.00
2017-10-17T01:01:28.386Z,20.55
2017-10-17T01:02:02.274Z,20.40
2017-10-17T01:02:36.172Z,18.90
2017-10-17T01:03:10.051Z,17.62
2017-10-17T01:03:43.929Z,18.48
2017-10-17T01:04:17.860Z,17.45
2017-10-17T01:04:51.727Z,16.83
2017-10-17T01:05:25.654Z,24.40
2017-10-17T01:05:59.546Z,20.25
2017-10-17T01:06:33.416Z,19.85
2017-10-17T01:07:07.284Z,17.40
2017-10-17T01:07:41.175Z,20.33
2017-10-17T01:08:15.095Z,19.17
2017-10-17T01:08:48.971Z,24.25
2017-10-17T01:09:22.832Z,21.90
2017-10-17T01:09:56.712Z,16.67
2017-10-17T01:10:30.582Z,17.25
2017-10-17T01:11:04.452Z,17.58
2017-10-17T01:11:38.320Z,17.02
2017-10-17T01:12:12.272Z,15.00
2017-10-17T01:12:46.162Z,21.10
2017-10-17T01:13:21.823Z,18.80
2017-10-17T01:13:55.693Z,17.45
2017-10-17T01:14:29.567Z,15.45
2017-10-17T01:15:03.448Z,21.40
2017-10-17T01:15:37.893Z,18.27
2017-10-17T01:16:11.788Z,15.05
2017-10-17T01:16:45.702Z,16.30
2017-10-17T01:17:19.565Z,22.20
2017-10-17T01:17:54.656Z,20.52
2017-10-17T01:18:28.908Z,17.35
2017-10-17T01:19:02.789Z,20.42
2017-10-17T01:19:36.650Z,16.60
2017-10-17T01:20:12.308Z,20.83
2017-10-17T01:21:01.080Z,21.85
2017-10-17T01:21:34.956Z,17.95
2017-10-17T01:22:08.848Z,16.98
2017-10-17T01:22:42.720Z,14.63
2017-10-17T01:23:18.401Z,16.65
2017-10-17T01:24:07.147Z,14.90
2017-10-17T01:25:47.373Z,22.02
2017-10-17T01:26:21.254Z,18.65
2017-10-17T01:26:55.983Z,18.60
2017-10-17T01:27:29.858Z,18.50
2017-10-17T01:28:03.724Z,24.77
2017-10-17T01:28:37.599Z,16.48
2017-10-17T01:29:11.476Z,18.17
2017-10-17T01:29:45.367Z,17.02
2017-10-17T01:30:19.236Z,17.42
2017-10-17T01:30:53.111Z,17.87
2017-10-17T01:31:26.986Z,17.60
2017-10-17T01:32:00.867Z,20.42
2017-10-17T01:32:34.743Z,19.33
2017-10-17T01:33:09.343Z,17.65
2017-10-17T01:33:44.914Z,16.12
2017-10-17T01:34:33.665Z,18.52
2017-10-17T01:35:07.535Z,15.68
2017-10-17T01:35:41.401Z,17.77
2017-10-17T01:36:15.258Z,17.05
2017-10-17T01:36:49.127Z,17.95
2017-10-17T01:37:22.998Z,17.67
2017-10-17T01:37:56.873Z,22.33
2017-10-17T01:38:31.389Z,18.55
2017-10-17T01:39:05.295Z,17.48
2017-10-17T01:39:41.837Z,16.23
2017-10-17T01:40:16.500Z,19.25
2017-10-17T01:40:50.377Z,16.30
2017-10-17T01:41:24.248Z,21.05
2017-10-17T01:41:58.111Z,18.48
2017-10-17T01:42:31.972Z,18.40
2017-10-17T01:43:06.693Z,21.02
2017-10-17T01:43:48.453Z,18.85
2017-10-17T01:44:25.102Z,16.77
2017-10-17T01:44:58.976Z,18.17
2017-10-17T01:45:32.868Z,21.33
2017-10-17T01:46:07.633Z,19.95
2017-10-17T01:46:45.441Z,19.50
2017-10-17T01:47:19.328Z,21.65
2017-10-17T01:49:00.885Z,20.52
2017-10-17T01:49:35.557Z,19.77
2017-10-17T01:50:21.228Z,15.90
2017-10-17T01:50:57.942Z,16.75
2017-10-17T01:51:43.587Z,21.80
2017-10-17T01:52:17.465Z,16.98
2017-10-17T01:53:06.226Z,20.42
2017-10-17T01:53:44.830Z,20.30
2017-10-17T01:54:19.528Z,16.65
2017-10-17T01:54:54.133Z,17.70
2017-10-17T01:55:28.001Z,18.65
2017-10-17T01:56:01.883Z,19.80
2017-10-17T01:56:35.762Z,17.02
2017-10-17T01:57:09.671Z,19.92
2017-10-17T01:57:44.336Z,21.12
2017-10-17T01:58:19.954Z,16.95
2017-10-17T01:58:53.827Z,19.42
2017-10-17T01:59:28.434Z,17.02
2017-10-17T02:00:04.131Z,17.70
2017-10-17T02:00:37.997Z,16.15
2017-10-17T02:01:12.833Z,16.98
2017-10-17T02:01:46.708Z,18.10
2017-10-17T02:02:20.576Z,21.15
2017-10-17T02:02:54.446Z,22.87
2017-10-17T02:03:28.305Z,18.87
2017-10-17T02:04:02.211Z,20.12
2017-10-17T02:04:36.075Z,20.83
2017-10-17T02:05:09.960Z,21.40
2017-10-17T02:05:43.833Z,17.45
2017-10-17T02:06:17.706Z,18.27
2017-10-17T02:06:51.568Z,17.75
2017-10-17T02:07:25.508Z,15.80
2017-10-17T02:07:59.373Z,15.68
2017-10-17T02:08:33.252Z,18.02
2017-10-17T02:09:07.136Z,27.48
2017-10-17T02:09:42.729Z,19.25
2017-10-17T02:10:20.544Z,20.17
2017-10-17T02:10:55.267Z,16.02
2017-10-17T02:11:29.132Z,19.90
2017-10-17T02:12:03.015Z,24.60
2017-10-17T02:12:36.887Z,15.10
2017-10-17T02:13:10.771Z,20.52
2017-10-17T02:13:44.702Z,20.30
2017-10-17T02:14:18.582Z,14.73
2017-10-17T02:14:52.452Z,20.65
2017-10-17T02:15:26.331Z,16.08
2017-10-17T02:16:00.202Z,17.73
2017-10-17T02:16:34.084Z,18.83
2017-10-17T02:17:07.960Z,17.35
2017-10-17T02:17:42.644Z,18.62
2017-10-17T02:18:16.514Z,21.12
2017-10-17T02:18:53.224Z,18.92
2017-10-17T02:19:27.105Z,21.90
2017-10-17T02:20:00.988Z,17.42
2017-10-17T02:20:34.881Z,18.58
2017-10-17T02:21:08.760Z,18.65
2017-10-17T02:21:43.419Z,18.67
2017-10-17T02:22:17.316Z,17.87
2017-10-17T02:22:51.194Z,17.62
2017-10-17T02:23:27.987Z,18.73
2017-10-17T02:24:03.447Z,18.77
2017-10-17T02:24:42.015Z,19.00
2017-10-17T02:25:34.515Z,18.83
2017-10-17T02:26:11.158Z,18.90
2017-10-17T02:26:45.031Z,20.50
2017-10-17T02:27:18.902Z,21.52
2017-10-17T02:27:52.777Z,21.23
2017-10-17T02:28:26.649Z,18.17
2017-10-17T02:29:00.533Z,18.67
2017-10-17T02:29:36.205Z,20.70
2017-10-17T02:30:10.732Z,23.48
2017-10-17T02:30:45.465Z,24.23
2017-10-17T02:31:22.019Z,21.27
2017-10-17T02:31:55.921Z,16.90
2017-10-17T02:32:29.797Z,22.83
2017-10-17T02:33:04.464Z,17.73
2017-10-17T02:33:38.348Z,18.52
2017-10-17T02:34:27.122Z,18.12
2017-10-17T02:35:00.998Z,17.95
2017-10-17T02:35:36.646Z,22.80
2017-10-17T02:36:10.532Z,22.77
2017-10-17T02:36:44.660Z,18.40
2017-10-17T02:37:18.529Z,17.80
2017-10-17T02:37:52.396Z,20.92
2017-10-17T02:38:26.286Z,19.30
2017-10-17T02:39:00.162Z,22.25
2017-10-17T02:39:34.041Z,24.92
2017-10-17T02:40:07.957Z,20.60
2017-10-17T02:40:41.838Z,19.20
2017-10-17T02:41:15.715Z,25.60
2017-10-17T02:41:49.620Z,18.80
2017-10-17T02:42:23.508Z,22.17
2017-10-17T02:43:10.046Z,22.13
2017-10-17T02:43:46.778Z,29.65
2017-10-17T02:44:20.648Z,23.27
2017-10-17T02:44:54.534Z,20.73
2017-10-17T02:45:28.409Z,21.00
2017-10-17T02:46:02.296Z,21.25
2017-10-17T02:46:36.180Z,21.10
2017-10-17T02:47:10.928Z,19.92
2017-10-17T02:47:44.814Z,18.75
2017-10-17T02:48:19.619Z,28.95
2017-10-17T02:48:55.094Z,21.80
2017-10-17T02:49:32.772Z,23.90
2017-10-17T02:50:07.578Z,19.90
2017-10-17T02:50:41.476Z,22.20
2017-10-17T02:51:15.353Z,23.15
2017-10-17T02:51:49.222Z,18.48
2017-10-17T02:52:27.821Z,22.25
2017-10-17T02:53:01.693Z,21.87
2017-10-17T02:53:35.562Z,19.48
2017-10-17T02:54:09.430Z,24.95
2017-10-17T02:54:43.304Z,21.42
2017-10-17T02:55:18.096Z,22.62
2017-10-17T02:55:51.958Z,22.87
2017-10-17T02:56:25.830Z,19.83
2017-10-17T02:56:59.704Z,18.45
2017-10-17T02:57:33.599Z,20.00
2017-10-17T02:58:08.424Z,26.95
2017-10-17T02:58:42.299Z,19.98
2017-10-17T02:59:16.162Z,20.00
2017-10-17T02:59:50.041Z,19.50
2017-10-17T03:00:23.923Z,20.20
2017-10-17T03:00:57.792Z,19.98
2017-10-17T03:01:31.650Z,20.77
2017-10-17T03:02:08.182Z,20.27
2017-10-17T03:02:42.870Z,23.30
2017-10-17T03:03:16.742Z,24.20
2017-10-17T03:03:50.618Z,22.08
2017-10-17T03:04:28.168Z,21.42
2017-10-17T03:05:02.053Z,24.10
2017-10-17T03:05:35.951Z,21.08
2017-10-17T03:06:09.863Z,22.65
2017-10-17T03:06:43.749Z,22.33
2017-10-17T03:07:17.648Z,21.40
2017-10-17T03:07:51.538Z,25.58
2017-10-17T03:08:25.437Z,29.10
2017-10-17T03:08:59.311Z,25.25
2017-10-17T03:09:33.173Z,33.65
2017-10-17T03:10:07.040Z,20.33
2017-10-17T03:10:40.903Z,23.05
2017-10-17T03:11:14.783Z,21.60
2017-10-17T03:11:48.649Z,23.00
2017-10-17T03:12:22.540Z,21.42
2017-10-17T03:12:56.425Z,21.10
2017-10-17T03:13:31.144Z,24.95
2017-10-17T03:14:07.856Z,22.08
2017-10-17T03:14:52.360Z,21.75
2017-10-17T03:15:29.112Z,20.80
2017-10-17T03:16:02.978Z,25.05
2017-10-17T03:16:36.884Z,20.05
2017-10-17T03:17:10.763Z,25.23
2017-10-17T03:17:44.648Z,24.15
2017-10-17T03:18:18.547Z,22.33
2017-10-17T03:18:52.434Z,22.92
2017-10-17T03:19:26.317Z,29.77
2017-10-17T03:20:00.197Z,22.20
2017-10-17T03:20:34.058Z,31.52
2017-10-17T03:21:11.714Z,19.62
2017-10-17T03:21:47.177Z,31.00
2017-10-17T03:22:21.045Z,26.27
2017-10-17T03:22:54.939Z,23.70
2017-10-17T03:23:29.558Z,23.33
2017-10-17T03:24:03.480Z,18.87
2017-10-17T03:24:38.106Z,24.08
2017-10-17T03:25:15.683Z,20.85
2017-10-17T03:25:49.553Z,19.58
2017-10-17T03:26:23.418Z,19.35
2017-10-17T03:26:57.312Z,22.70
2017-10-17T03:27:31.183Z,22.35
2017-10-17T03:28:06.979Z,21.45
2017-10-17T03:28:40.882Z,23.25
2017-10-17T03:29:14.749Z,21.35
2017-10-17T03:29:48.629Z,23.25
2017-10-17T03:30:22.507Z,25.15
2017-10-17T03:30:57.321Z,22.23
2017-10-17T03:31:31.190Z,20.08
2017-10-17T03:32:05.047Z,19.35
2017-10-17T03:32:38.933Z,19.77
2017-10-17T03:33:14.426Z,24.70
2017-10-17T03:33:50.308Z,22.05
2017-10-17T03:34:24.202Z,26.15
2017-10-17T03:35:03.840Z,27.65
2017-10-17T03:35:37.724Z,23.58
2017-10-17T03:36:12.437Z,25.12
2017-10-17T03:36:46.332Z,19.23
2017-10-17T03:37:35.909Z,24.17
2017-10-17T03:38:12.715Z,23.45
2017-10-17T03:38:57.317Z,22.92
2017-10-17T03:39:31.210Z,19.12
2017-10-17T03:40:14.986Z,22.23
2017-10-17T03:40:52.554Z,21.98
2017-10-17T03:41:27.152Z,27.65
2017-10-17T03:42:01.018Z,25.33
2017-10-17T03:42:34.925Z,28.60
2017-10-17T03:43:10.739Z,25.35
2017-10-17T03:43:48.362Z,25.95
2017-10-17T03:44:37.126Z,20.90
2017-10-17T03:45:11.925Z,23.12
2017-10-17T03:45:45.816Z,27.02
2017-10-17T03:46:20.554Z,22.15
2017-10-17T03:46:54.450Z,23.42
2017-10-17T03:47:31.912Z,21.80
2017-10-17T03:48:05.788Z,20.23
2017-10-17T03:48:39.686Z,26.40
2017-10-17T03:49:28.433Z,27.35
2017-10-17T03:50:52.042Z,20.50
2017-10-17T03:51:25.918Z,22.65
2017-10-17T03:51:59.837Z,36.85
2017-10-17T03:52:34.497Z,24.73
2017-10-17T03:53:23.970Z,20.42
2017-10-17T03:53:58.596Z,25.35
2017-10-17T03:54:32.492Z,25.90
2017-10-17T03:55:06.381Z,24.17
2017-10-17T03:55:40.265Z,23.55
2017-10-17T03:56:29.033Z,21.98
2017-10-17T03:57:03.026Z,21.27
2017-10-17T03:57:42.646Z,26.70
2017-10-17T03:58:34.267Z,20.58
2017-10-17T03:59:08.155Z,23.35
2017-10-17T03:59:42.772Z,26.70
2017-10-17T04:00:17.480Z,23.50
2017-10-17T04:00:51.350Z,28.20
2017-10-17T04:01:30.025Z,25.95
2017-10-17T04:02:03.904Z,27.37
2017-10-17T04:02:37.781Z,23.17
2017-10-17T04:03:11.654Z,24.20
2017-10-17T04:03:48.444Z,25.77
2017-10-17T04:04:22.324Z,24.95
2017-10-17T04:05:01.873Z,25.00
2017-10-17T04:05:35.767Z,27.60
2017-10-17T04:06:15.699Z,26.10
2017-10-17T04:07:00.420Z,24.17
2017-10-17T04:07:44.207Z,23.05
2017-10-17T04:08:23.740Z,25.25
2017-10-17T04:08:59.490Z,23.85
2017-10-17T04:09:39.186Z,21.15
2017-10-17T04:10:18.967Z,26.17
2017-10-17T04:11:07.741Z,26.23
2017-10-17T04:11:41.614Z,30.40
2017-10-17T04:12:15.493Z,24.67
2017-10-17T04:12:49.385Z,26.37
2017-10-17T04:13:29.171Z,24.40
2017-10-17T04:14:03.042Z,23.08
2017-10-17T04:14:37.662Z,27.87
2017-10-17T04:15:11.537Z,29.52
2017-10-17T04:15:45.408Z,23.05
2017-10-17T04:16:34.167Z,28.30
2017-10-17T04:17:24.822Z,24.00
2017-10-17T04:18:00.526Z,28.50
2017-10-17T04:18:36.255Z,25.52
2017-10-17T04:19:12.964Z,24.87
2017-10-17T04:20:03.712Z,23.67
2017-10-17T04:20:37.631Z,25.75
2017-10-17T04:21:13.438Z,24.48
2017-10-17T04:21:50.044Z,25.65
2017-10-17T04:22:44.722Z,21.80
2017-10-17T04:23:24.457Z,24.45
2017-10-17T04:24:00.301Z,24.05
2017-10-17T04:24:47.021Z,23.73
2017-10-17T04:25:23.773Z,22.25
2017-10-17T04:25:59.560Z,22.85
2017-10-17T04:26:34.250Z,27.30
2017-10-17T04:27:10.756Z,23.70
2017-10-17T04:28:00.360Z,27.58
2017-10-17T04:29:35.779Z,23.50
2017-10-17T04:30:10.636Z,26.52
2017-10-17T04:30:52.271Z,22.83
2017-10-17T04:31:28.957Z,27.60
2017-10-17T04:32:02.840Z,26.10
2017-10-17T04:32:40.592Z,26.70
2017-10-17T04:33:19.421Z,25.35
2017-10-17T04:33:58.093Z,30.50
2017-10-17T04:34:35.710Z,34.55
2017-10-17T04:35:09.580Z,23.95
2017-10-17T04:35:43.452Z,21.60
2017-10-17T04:36:18.188Z,27.15
2017-10-17T04:37:06.963Z,23.17
2017-10-17T04:37:51.556Z,22.00
2017-10-17T04:38:25.424Z,24.37
2017-10-17T04:38:59.294Z,23.02
2017-10-17T04:39:33.163Z,28.77
2017-10-17T04:40:10.917Z,26.70
2017-10-17T04:40:44.816Z,28.67
2017-10-17T04:41:18.690Z,31.77
2017-10-17T04:41:56.392Z,27.10
2017-10-17T04:42:30.961Z,30.90
2017-10-17T04:43:10.776Z,33.92
2017-10-17T04:44:03.466Z,31.30
2017-10-17T04:44:54.100Z,22.55
2017-10-17T04:45:34.630Z,25.37
2017-10-17T04:46:10.242Z,30.65
2017-10-17T04:46:45.065Z,25.33
2017-10-17T04:47:18.939Z,24.30
2017-10-17T04:47:58.571Z,25.80
2017-10-17T04:48:37.228Z,31.83
2017-10-17T04:49:11.970Z,31.55
2017-10-17T04:50:01.615Z,24.65
2017-10-17T04:50:41.363Z,31.27
2017-10-17T04:51:16.042Z,30.15
2017-10-17T04:52:02.651Z,26.95
2017-10-17T04:52:39.393Z,26.73
2017-10-17T04:53:28.136Z,34.53
2017-10-17T04:55:03.254Z,26.25
2017-10-17T04:55:38.057Z,28.33
2017-10-17T04:56:13.521Z,24.12
2017-10-17T04:56:52.381Z,30.23
2017-10-17T04:57:41.196Z,27.37
2017-10-17T04:58:15.813Z,22.25
2017-10-17T04:59:04.586Z,24.23
2017-10-17T05:00:39.158Z,32.63
2017-10-17T05:01:13.075Z,21.48
2017-10-17T05:01:46.953Z,25.73
2017-10-17T05:02:26.682Z,23.20
2017-10-17T05:03:03.333Z,26.80
2017-10-17T05:03:38.131Z,22.77
2017-10-17T05:04:30.694Z,23.40
2017-10-17T05:06:06.703Z,22.55
2017-10-17T05:06:40.606Z,23.17
2017-10-17T05:07:17.386Z,24.80
2017-10-17T05:07:55.091Z,29.02
2017-10-17T05:08:34.898Z,21.80
2017-10-17T05:09:11.584Z,22.17
2017-10-17T05:10:01.291Z,25.33
2017-10-17T05:10:41.112Z,27.65
2017-10-17T05:11:15.173Z,23.25
2017-10-17T05:11:49.089Z,27.67
2017-10-17T05:12:24.665Z,22.37
2017-10-17T05:13:16.268Z,23.05
2017-10-17T05:13:50.147Z,21.02
2017-10-17T05:14:41.614Z,22.35
2017-10-17T05:15:15.535Z,21.75
2017-10-17T05:16:08.447Z,26.95
2017-10-17T05:16:58.008Z,24.73
2017-10-17T05:17:31.883Z,25.17
2017-10-17T05:18:07.681Z,26.08
2017-10-17T05:18:41.578Z,24.60
2017-10-17T05:19:21.225Z,30.98
2017-10-17T05:19:57.837Z,27.98
2017-10-17T05:20:42.582Z,26.58
2017-10-17T05:21:16.530Z,21.55
2017-10-17T05:21:50.416Z,24.80
2017-10-17T05:22:26.168Z,23.35
2017-10-17T05:23:16.734Z,20.37
2017-10-17T05:23:56.442Z,22.58
2017-10-17T05:24:41.168Z,25.42
2017-10-17T05:25:17.976Z,23.25
2017-10-17T05:25:51.892Z,31.05
2017-10-17T05:26:25.785Z,25.55
2017-10-17T05:27:05.468Z,33.65
2017-10-17T05:27:55.995Z,28.10
2017-10-17T05:28:35.845Z,26.87
2017-10-17T05:29:09.756Z,28.08
2017-10-17T05:29:43.649Z,26.35
2017-10-17T05:30:18.464Z,28.87
2017-10-17T05:30:54.218Z,24.87
2017-10-17T05:31:30.741Z,24.83
2017-10-17T05:32:04.648Z,33.28
2017-10-17T05:32:38.566Z,24.48
2017-10-17T05:33:18.178Z,31.00
2017-10-17T05:34:11.743Z,26.62
2017-10-17T05:34:45.638Z,26.00
2017-10-17T05:35:21.457Z,22.58
2017-10-17T05:35:55.345Z,22.75
2017-10-17T05:36:30.031Z,21.98
2017-10-17T05:37:06.757Z,28.30
2017-10-17T05:37:40.692Z,28.25
2017-10-17T05:38:14.585Z,29.73
2017-10-17T05:38:48.482Z,31.62
2017-10-17T05:39:22.367Z,30.55
2017-10-17T05:39:56.248Z,32.35
2017-10-17T05:40:30.141Z,24.83
2017-10-17T05:41:04.097Z,26.40
2017-10-17T05:41:37.983Z,24.85
2017-10-17T05:42:11.892Z,27.50
2017-10-17T05:42:45.863Z,25.60
2017-10-17T05:43:35.468Z,28.48
2017-10-17T05:44:13.140Z,24.40
2017-10-17T05:44:49.742Z,25.90
2017-10-17T05:45:23.613Z,21.25
2017-10-17T05:45:57.492Z,22.60
2017-10-17T05:46:31.378Z,25.02
2017-10-17T05:47:05.279Z,23.73
2017-10-17T05:47:39.200Z,23.98
2017-10-17T05:48:13.867Z,27.62
2017-10-17T05:48:48.673Z,24.87
2017-10-17T05:49:23.328Z,27.17
2017-10-17T05:49:57.973Z,21.05
2017-10-17T05:50:32.540Z,26.98
2017-10-17T05:51:07.223Z,21.35
2017-10-17T05:51:41.145Z,23.85
2017-10-17T05:52:15.039Z,22.35
2017-10-17T05:52:48.942Z,22.58
2017-10-17T05:53:22.870Z,26.58
2017-10-17T05:53:56.736Z,21.20
2017-10-17T05:54:30.603Z,21.35
2017-10-17T05:55:04.565Z,24.60
2017-10-17T05:55:38.439Z,23.15
2017-10-17T05:56:12.344Z,24.15
2017-10-17T05:56:46.248Z,20.80
2017-10-17T05:57:20.122Z,23.87
2017-10-17T05:57:54.049Z,21.95
2017-10-17T05:58:27.932Z,23.80
2017-10-17T05:59:01.819Z,22.35
2017-10-17T05:59:35.707Z,23.40
2017-10-17T06:00:09.607Z,22.77
2017-10-17T06:00:43.477Z,23.80
2017-10-17T06:01:17.365Z,30.12
2017-10-17T06:01:51.236Z,29.52
2017-10-17T06:02:25.104Z,28.67
2017-10-17T06:02:59.019Z,33.70
2017-10-17T06:03:32.901Z,21.55
2017-10-17T06:04:06.816Z,30.77
2017-10-17T06:04:40.730Z,25.42
2017-10-17T06:05:14.637Z,29.60
2017-10-17T06:05:48.533Z,30.15
2017-10-17T06:06:22.399Z,24.87
2017-10-17T06:06:56.290Z,27.05
2017-10-17T06:07:30.174Z,24.85
2017-10-17T06:08:04.055Z,25.52
2017-10-17T06:08:37.960Z,26.05
2017-10-17T06:09:11.832Z,28.80
2017-10-17T06:09:45.701Z,29.33
2017-10-17T06:10:19.613Z,29.83
2017-10-17T06:10:53.478Z,28.92
2017-10-17T06:11:27.359Z,22.83
2017-10-17T06:12:01.266Z,27.20
2017-10-17T06:12:35.164Z,30.08
2017-10-17T06:13:09.043Z,26.30
2017-10-17T06:13:42.967Z,30.02
2017-10-17T06:14:16.834Z,24.42
2017-10-17T06:14:50.716Z,26.17
2017-10-17T06:15:24.587Z,31.75
2017-10-17T06:15:58.460Z,25.27
2017-10-17T06:16:32.394Z,30.50
2017-10-17T06:17:06.368Z,25.98
2017-10-17T06:17:40.260Z,27.55
2017-10-17T06:18:14.172Z,26.33
2017-10-17T06:18:48.039Z,24.77
2017-10-17T06:19:21.907Z,26.00
2017-10-17T06:19:55.789Z,25.58
2017-10-17T06:20:29.673Z,26.52
2017-10-17T06:21:03.531Z,22.48
2017-10-17T06:21:37.434Z,24.50
2017-10-17T06:22:11.326Z,22.45
2017-10-17T06:22:45.224Z,23.65
2017-10-17T06:23:19.127Z,27.10
2017-10-17T06:23:52.998Z,27.25
2017-10-17T06:24:26.921Z,24.55
2017-10-17T06:25:00.845Z,21.12
2017-10-17T06:25:34.737Z,21.92
2017-10-17T06:26:08.604Z,23.73
2017-10-17T06:26:42.477Z,26.92
2017-10-17T06:27:16.351Z,20.92
2017-10-17T06:27:50.217Z,22.80
2017-10-17T06:28:24.113Z,25.77
2017-10-17T06:28:58.025Z,22.60
2017-10-17T06:29:31.979Z,23.58
2017-10-17T06:30:05.843Z,25.02
2017-10-17T06:30:39.802Z,27.83
2017-10-17T06:31:14.659Z,26.90
2017-10-17T06:31:48.850Z,21.35
2017-10-17T06:32:23.116Z,24.83
2017-10-17T06:32:58.887Z,22.87
2017-10-17T06:33:34.271Z,20.70
2017-10-17T06:34:10.547Z,21.52
2017-10-17T06:34:45.170Z,28.25
2017-10-17T06:35:21.438Z,20.98
2017-10-17T06:35:57.161Z,21.87
2017-10-17T06:36:31.233Z,25.70
2017-10-17T06:37:05.281Z,25.20
2017-10-17T06:37:39.310Z,22.00
2017-10-17T06:38:13.287Z,19.67
2017-10-17T06:38:47.252Z,27.02
2017-10-17T06:39:21.855Z,28.10
2017-10-17T06:39:55.881Z,24.42
2017-10-17T06:40:29.962Z,22.00
2017-10-17T06:41:04.701Z,20.50
2017-10-17T06:41:38.657Z,21.33
2017-10-17T06:42:14.949Z,28.73
2017-10-17T06:42:49.577Z,27.58
2017-10-17T06:43:24.219Z,23.27
2017-10-17T06:43:58.510Z,30.48
2017-10-17T06:44:33.009Z,21.87
2017-10-17T06:45:06.868Z,24.95
2017-10-17T06:45:40.759Z,29.60
2017-10-17T06:46:14.630Z,26.27
2017-10-17T06:46:48.507Z,20.88
2017-10-17T06:47:22.480Z,21.00
2017-10-17T06:47:56.353Z,22.52
2017-10-17T06:48:30.222Z,22.17
2017-10-17T06:49:04.119Z,23.42
2017-10-17T06:49:37.998Z,22.92
2017-10-17T06:50:11.861Z,28.33
2017-10-17T06:50:45.750Z,26.48
2017-10-17T06:51:19.633Z,23.62
2017-10-17T06:51:53.555Z,25.17
2017-10-17T06:52:27.435Z,26.65
2017-10-17T06:53:01.339Z,22.08
2017-10-17T06:53:35.239Z,30.67
2017-10-17T06:54:09.130Z,22.00
2017-10-17T06:54:43.005Z,24.02
2017-10-17T06:55:16.981Z,23.10
2017-10-17T06:55:50.865Z,21.52
2017-10-17T06:56:24.749Z,23.85
2017-10-17T06:56:58.641Z,21.95
2017-10-17T06:57:32.512Z,23.83
2017-10-17T06:58:06.377Z,20.83
2017-10-17T06:58:40.246Z,20.40
2017-10-17T06:59:14.157Z,18.75
2017-10-17T06:59:48.046Z,18.05
2017-10-17T07:00:21.928Z,24.52
2017-10-17T07:00:56.548Z,19.02
2017-10-17T07:01:30.415Z,22.15
2017-10-17T07:02:04.308Z,19.23
2017-10-17T07:02:38.657Z,20.58
2017-10-17T07:03:12.554Z,20.08
2017-10-17T07:03:47.193Z,22.02
2017-10-17T07:04:21.073Z,21.10
2017-10-17T07:04:55.028Z,20.90
2017-10-17T07:05:28.902Z,20.85
2017-10-17T07:06:02.787Z,22.35
2017-10-17T07:06:36.688Z,18.00
2017-10-17T07:07:10.567Z,18.90
2017-10-17T07:07:44.429Z,23.25
2017-10-17T07:08:18.321Z,22.50
2017-10-17T07:08:52.226Z,23.23
2017-10-17T07:09:26.126Z,19.45
2017-10-17T07:10:00.002Z,17.65
2017-10-17T07:10:33.908Z,20.67
2017-10-17T07:11:07.823Z,19.20
2017-10-17T07:11:41.692Z,19.35
2017-10-17T07:12:15.564Z,19.20
2017-10-17T07:12:49.426Z,20.42
2017-10-17T07:13:23.451Z,19.73
2017-10-17T07:13:57.341Z,24.52
2017-10-17T07:14:31.529Z,21.40
2017-10-17T07:15:05.407Z,21.83
2017-10-17T07:15:39.305Z,20.02
2017-10-17T07:16:13.177Z,21.67
2017-10-17T07:16:47.595Z,18.50
2017-10-17T07:17:21.697Z,21.23
2017-10-17T07:17:56.011Z,27.02
2017-10-17T07:18:30.155Z,35.88
2017-10-17T07:19:04.033Z,37.40
2017-10-17T07:19:37.925Z,25.80
2017-10-17T07:20:11.792Z,30.90
2017-10-17T07:20:45.857Z,38.95
2017-10-17T07:21:19.741Z,49.63
2017-10-17T07:21:53.698Z,37.25
2017-10-17T07:22:27.586Z,33.30
2017-10-17T07:23:01.546Z,31.00
2017-10-17T07:23:35.442Z,34.22
2017-10-17T07:24:09.336Z,23.83
2017-10-17T07:24:43.236Z,22.80
2017-10-17T07:25:17.101Z,22.30
2017-10-17T07:25:50.973Z,18.33
2017-10-17T07:26:24.834Z,23.15
2017-10-17T07:26:58.721Z,19.08
2017-10-17T07:27:32.596Z,17.77
2017-10-17T07:28:06.482Z,17.23
2017-10-17T07:28:40.371Z,23.48
2017-10-17T07:29:14.263Z,20.85
2017-10-17T07:29:48.161Z,18.58
2017-10-17T07:30:22.037Z,20.88
2017-10-17T07:30:55.904Z,21.80
2017-10-17T07:31:29.803Z,16.70
2017-10-17T07:32:04.494Z,22.95
2017-10-17T07:32:38.407Z,25.08
2017-10-17T07:33:12.312Z,19.48
2017-10-17T07:33:46.182Z,24.27
2017-10-17T07:34:20.075Z,17.23
2017-10-17T07:34:53.952Z,18.00
2017-10-17T07:35:27.892Z,23.95
2017-10-17T07:36:01.755Z,23.33
2017-10-17T07:36:35.636Z,21.05
2017-10-17T07:37:09.507Z,18.70
2017-10-17T07:37:43.376Z,24.90
2017-10-17T07:38:17.248Z,17.45
2017-10-17T07:38:51.106Z,21.83
2017-10-17T07:39:24.995Z,18.20
2017-10-17T07:39:58.879Z,22.58
2017-10-17T07:40:32.762Z,20.05
2017-10-17T07:41:06.618Z,18.05
2017-10-17T07:41:40.487Z,23.40
2017-10-17T07:42:14.377Z,19.67
2017-10-17T07:42:48.263Z,24.15
2017-10-17T07:43:22.147Z,23.80